< < Back
Terminal Aerodrome Forecast


Current Version              Previous Versions:   1  2  3  4  5  6  7  8  9  

Terminal Aerodrome Forecast

418
FTUS42 KTAE 240500
TAFABY
TAF
KABY 240533Z 2406/2506 21007KT 6SM SHRA BR BKN007 OVC030
      TEMPO 2410/2413 BKN003
     FM241600 24010KT P6SM BKN025
     FM241900 27018KT P6SM SCT030 BKN100=



Latest METAR

305
SAUS70 KWBC 242100 RRC
MTRABY
METAR KABY 242053Z 22003KT 10SM VCTS FEW024 BKN110 22/19 A2985 RMK AO2
TSB19RAB35E49 SLP108 P0001 60001 T02220194 53003 $


USA.gov is the U.S. government's official web portal to all federal, state and local government web resources and services.